sensor_id;sensor_type;location;lat;lon;timestamp;P1;durP1;ratioP1;P2;durP2;ratioP2
36423;SDS011;22458;45.328;9.514;2023-02-15T00:00:22;35.30;;;19.13;;
36423;SDS011;22458;45.328;9.514;2023-02-15T00:02:47;38.63;;;21.23;;
36423;SDS011;22458;45.328;9.514;2023-02-15T00:05:13;37.75;;;21.30;;
36423;SDS011;22458;45.328;9.514;2023-02-15T00:07:39;38.83;;;21.30;;
36423;SDS011;22458;45.328;9.514;2023-02-15T00:10:05;42.45;;;24.05;;
36423;SDS011;22458;45.328;9.514;2023-02-15T00:12:31;42.33;;;22.30;;
36423;SDS011;22458;45.328;9.514;2023-02-15T00:14:57;40.95;;;23.23;;
36423;SDS011;22458;45.328;9.514;2023-02-15T00:17:23;41.80;;;22.63;;
36423;SDS011;22458;45.328;9.514;2023-02-15T00:19:48;38.05;;;22.35;;
36423;SDS011;22458;45.328;9.514;2023-02-15T00:22:14;40.45;;;23.70;;
36423;SDS011;22458;45.328;9.514;2023-02-15T00:24:40;43.60;;;24.20;;
36423;SDS011;22458;45.328;9.514;2023-02-15T00:27:06;44.47;;;24.25;;
36423;SDS011;22458;45.328;9.514;2023-02-15T00:29:31;38.90;;;21.88;;
36423;SDS011;22458;45.328;9.514;2023-02-15T00:31:57;43.53;;;21.75;;
36423;SDS011;22458;45.328;9.514;2023-02-15T00:34:24;37.83;;;22.17;;
36423;SDS011;22458;45.328;9.514;2023-02-15T00:36:51;41.85;;;22.90;;
36423;SDS011;22458;45.328;9.514;2023-02-15T00:39:17;38.97;;;23.55;;
36423;SDS011;22458;45.328;9.514;2023-02-15T00:41:44;38.28;;;22.45;;
36423;SDS011;22458;45.328;9.514;2023-02-15T00:44:10;38.38;;;23.00;;
36423;SDS011;22458;45.328;9.514;2023-02-15T00:46:37;40.92;;;23.10;;
36423;SDS011;22458;45.328;9.514;2023-02-15T00:49:03;48.50;;;24.33;;
36423;SDS011;22458;45.328;9.514;2023-02-15T00:51:30;42.65;;;24.75;;
36423;SDS011;22458;45.328;9.514;2023-02-15T00:53:56;37.38;;;22.75;;
36423;SDS011;22458;45.328;9.514;2023-02-15T00:56:21;47.78;;;23.85;;
36423;SDS011;22458;45.328;9.514;2023-02-15T00:58:47;39.53;;;21.83;;
36423;SDS011;22458;45.328;9.514;2023-02-15T01:01:14;44.78;;;23.63;;
36423;SDS011;22458;45.328;9.514;2023-02-15T01:03:43;42.15;;;23.90;;
36423;SDS011;22458;45.328;9.514;2023-02-15T01:06:11;42.42;;;23.65;;
36423;SDS011;22458;45.328;9.514;2023-02-15T01:08:38;40.75;;;23.75;;
36423;SDS011;22458;45.328;9.514;2023-02-15T01:11:05;40.35;;;22.70;;
36423;SDS011;22458;45.328;9.514;2023-02-15T01:13:36;39.10;;;22.33;;
36423;SDS011;22458;45.328;9.514;2023-02-15T01:16:02;40.10;;;23.23;;
36423;SDS011;22458;45.328;9.514;2023-02-15T01:18:28;40.72;;;21.75;;
36423;SDS011;22458;45.328;9.514;2023-02-15T01:20:55;35.42;;;20.88;;
36423;SDS011;22458;45.328;9.514;2023-02-15T01:23:21;37.53;;;19.88;;
36423;SDS011;22458;45.328;9.514;2023-02-15T01:25:47;36.05;;;21.52;;
36423;SDS011;22458;45.328;9.514;2023-02-15T01:28:12;37.22;;;21.17;;
36423;SDS011;22458;45.328;9.514;2023-02-15T01:30:38;32.00;;;18.80;;
36423;SDS011;22458;45.328;9.514;2023-02-15T01:33:04;33.72;;;17.40;;
36423;SDS011;22458;45.328;9.514;2023-02-15T01:35:30;29.25;;;17.90;;
36423;SDS011;22458;45.328;9.514;2023-02-15T01:37:56;31.00;;;17.83;;
36423;SDS011;22458;45.328;9.514;2023-02-15T01:40:23;28.90;;;15.48;;
36423;SDS011;22458;45.328;9.514;2023-02-15T01:42:53;27.55;;;16.35;;
36423;SDS011;22458;45.328;9.514;2023-02-15T01:45:24;22.33;;;12.82;;
36423;SDS011;22458;45.328;9.514;2023-02-15T01:48:03;16.80;;;11.80;;
36423;SDS011;22458;45.328;9.514;2023-02-15T01:50:43;18.08;;;11.13;;
36423;SDS011;22458;45.328;9.514;2023-02-15T01:53:14;18.17;;;11.50;;
36423;SDS011;22458;45.328;9.514;2023-02-15T01:55:42;19.35;;;11.52;;
36423;SDS011;22458;45.328;9.514;2023-02-15T01:58:14;19.42;;;12.02;;
36423;SDS011;22458;45.328;9.514;2023-02-15T02:00:40;15.05;;;11.50;;
36423;SDS011;22458;45.328;9.514;2023-02-15T02:03:07;25.13;;;14.63;;
36423;SDS011;22458;45.328;9.514;2023-02-15T02:05:33;20.40;;;13.88;;
36423;SDS011;22458;45.328;9.514;2023-02-15T02:08:00;20.08;;;13.52;;
36423;SDS011;22458;45.328;9.514;2023-02-15T02:10:27;23.90;;;14.52;;
36423;SDS011;22458;45.328;9.514;2023-02-15T02:12:57;20.70;;;13.85;;
36423;SDS011;22458;45.328;9.514;2023-02-15T02:15:47;26.35;;;15.50;;
36423;SDS011;22458;45.328;9.514;2023-02-15T02:18:17;23.65;;;15.48;;
36423;SDS011;22458;45.328;9.514;2023-02-15T02:37:35;24.58;;;14.70;;
36423;SDS011;22458;45.328;9.514;2023-02-15T02:40:16;24.55;;;15.13;;
36423;SDS011;22458;45.328;9.514;2023-02-15T02:42:50;25.30;;;15.50;;
36423;SDS011;22458;45.328;9.514;2023-02-15T02:45:26;20.55;;;13.13;;
36423;SDS011;22458;45.328;9.514;2023-02-15T02:48:00;20.73;;;13.68;;
36423;SDS011;22458;45.328;9.514;2023-02-15T02:50:31;26.33;;;15.43;;
36423;SDS011;22458;45.328;9.514;2023-02-15T02:52:57;23.23;;;13.10;;
36423;SDS011;22458;45.328;9.514;2023-02-15T02:55:26;17.73;;;12.75;;
36423;SDS011;22458;45.328;9.514;2023-02-15T02:58:20;19.65;;;13.52;;
36423;SDS011;22458;45.328;9.514;2023-02-15T03:00:57;21.98;;;14.30;;
36423;SDS011;22458;45.328;9.514;2023-02-15T03:03:41;25.40;;;16.50;;
36423;SDS011;22458;45.328;9.514;2023-02-15T03:06:17;20.15;;;14.13;;
36423;SDS011;22458;45.328;9.514;2023-02-15T03:08:51;23.02;;;13.55;;
36423;SDS011;22458;45.328;9.514;2023-02-15T03:11:21;20.38;;;13.45;;
36423;SDS011;22458;45.328;9.514;2023-02-15T03:13:48;21.33;;;14.43;;
36423;SDS011;22458;45.328;9.514;2023-02-15T03:16:15;16.90;;;12.48;;
36423;SDS011;22458;45.328;9.514;2023-02-15T03:21:34;20.27;;;14.32;;
36423;SDS011;22458;45.328;9.514;2023-02-15T03:24:23;21.25;;;14.80;;
36423;SDS011;22458;45.328;9.514;2023-02-15T03:26:51;20.25;;;13.68;;
36423;SDS011;22458;45.328;9.514;2023-02-15T03:29:22;21.55;;;14.43;;
36423;SDS011;22458;45.328;9.514;2023-02-15T03:31:54;20.63;;;14.43;;
36423;SDS011;22458;45.328;9.514;2023-02-15T03:34:24;23.13;;;14.68;;
36423;SDS011;22458;45.328;9.514;2023-02-15T03:37:01;21.90;;;14.50;;
36423;SDS011;22458;45.328;9.514;2023-02-15T03:39:54;19.42;;;12.82;;
36423;SDS011;22458;45.328;9.514;2023-02-15T03:42:49;19.92;;;12.52;;
36423;SDS011;22458;45.328;9.514;2023-02-15T03:45:27;22.52;;;13.57;;
36423;SDS011;22458;45.328;9.514;2023-02-15T03:47:56;23.92;;;14.43;;
36423;SDS011;22458;45.328;9.514;2023-02-15T03:50:26;24.15;;;15.60;;
36423;SDS011;22458;45.328;9.514;2023-02-15T03:53:14;26.08;;;13.70;;
36423;SDS011;22458;45.328;9.514;2023-02-15T03:55:46;22.73;;;14.10;;
36423;SDS011;22458;45.328;9.514;2023-02-15T03:58:13;26.73;;;14.27;;
36423;SDS011;22458;45.328;9.514;2023-02-15T04:00:58;22.15;;;15.27;;
36423;SDS011;22458;45.328;9.514;2023-02-15T04:03:57;26.13;;;15.00;;
36423;SDS011;22458;45.328;9.514;2023-02-15T04:06:32;22.15;;;13.85;;
36423;SDS011;22458;45.328;9.514;2023-02-15T04:08:58;21.77;;;14.05;;
36423;SDS011;22458;45.328;9.514;2023-02-15T04:11:42;24.52;;;15.75;;
36423;SDS011;22458;45.328;9.514;2023-02-15T04:14:08;23.80;;;14.98;;
36423;SDS011;22458;45.328;9.514;2023-02-15T04:16:52;25.98;;;16.08;;
36423;SDS011;22458;45.328;9.514;2023-02-15T04:19:18;25.65;;;15.65;;
36423;SDS011;22458;45.328;9.514;2023-02-15T04:22:02;26.67;;;16.25;;
36423;SDS011;22458;45.328;9.514;2023-02-15T04:24:47;26.50;;;15.45;;
36423;SDS011;22458;45.328;9.514;2023-02-15T04:27:31;27.05;;;17.40;;
36423;SDS011;22458;45.328;9.514;2023-02-15T04:29:58;28.90;;;17.17;;
36423;SDS011;22458;45.328;9.514;2023-02-15T04:32:24;25.80;;;15.85;;
36423;SDS011;22458;45.328;9.514;2023-02-15T04:34:49;25.52;;;16.25;;
36423;SDS011;22458;45.328;9.514;2023-02-15T04:37:15;21.50;;;13.98;;
36423;SDS011;22458;45.328;9.514;2023-02-15T04:39:41;20.35;;;12.65;;
36423;SDS011;22458;45.328;9.514;2023-02-15T04:42:06;19.88;;;12.77;;
36423;SDS011;22458;45.328;9.514;2023-02-15T04:44:32;20.25;;;13.75;;
36423;SDS011;22458;45.328;9.514;2023-02-15T04:46:58;20.08;;;13.00;;
36423;SDS011;22458;45.328;9.514;2023-02-15T04:49:24;20.20;;;13.38;;
36423;SDS011;22458;45.328;9.514;2023-02-15T04:51:49;19.33;;;12.30;;
36423;SDS011;22458;45.328;9.514;2023-02-15T04:54:15;16.52;;;11.52;;
36423;SDS011;22458;45.328;9.514;2023-02-15T04:56:41;15.10;;;10.90;;
36423;SDS011;22458;45.328;9.514;2023-02-15T04:59:09;15.45;;;11.52;;
36423;SDS011;22458;45.328;9.514;2023-02-15T05:01:36;16.85;;;11.35;;
36423;SDS011;22458;45.328;9.514;2023-02-15T05:04:01;18.88;;;12.75;;
36423;SDS011;22458;45.328;9.514;2023-02-15T05:06:28;20.10;;;12.90;;
36423;SDS011;22458;45.328;9.514;2023-02-15T05:08:53;19.95;;;13.23;;
36423;SDS011;22458;45.328;9.514;2023-02-15T05:11:19;20.02;;;12.55;;
36423;SDS011;22458;45.328;9.514;2023-02-15T05:13:45;18.33;;;12.48;;
36423;SDS011;22458;45.328;9.514;2023-02-15T05:16:11;19.02;;;13.20;;
36423;SDS011;22458;45.328;9.514;2023-02-15T05:18:37;19.40;;;12.55;;
36423;SDS011;22458;45.328;9.514;2023-02-15T05:21:03;18.73;;;13.32;;
36423;SDS011;22458;45.328;9.514;2023-02-15T05:23:28;18.75;;;12.45;;
36423;SDS011;22458;45.328;9.514;2023-02-15T05:25:54;17.08;;;12.90;;
36423;SDS011;22458;45.328;9.514;2023-02-15T05:28:39;18.15;;;11.68;;
36423;SDS011;22458;45.328;9.514;2023-02-15T05:31:06;17.35;;;11.80;;
36423;SDS011;22458;45.328;9.514;2023-02-15T05:33:35;18.75;;;12.60;;
36423;SDS011;22458;45.328;9.514;2023-02-15T05:36:01;18.27;;;12.98;;
36423;SDS011;22458;45.328;9.514;2023-02-15T05:38:27;19.10;;;13.13;;
36423;SDS011;22458;45.328;9.514;2023-02-15T05:40:54;18.92;;;12.02;;
36423;SDS011;22458;45.328;9.514;2023-02-15T05:43:20;18.58;;;12.57;;
36423;SDS011;22458;45.328;9.514;2023-02-15T05:45:46;18.35;;;11.20;;
36423;SDS011;22458;45.328;9.514;2023-02-15T05:48:13;19.02;;;12.50;;
36423;SDS011;22458;45.328;9.514;2023-02-15T05:50:39;20.85;;;12.48;;
36423;SDS011;22458;45.328;9.514;2023-02-15T05:53:05;16.13;;;11.27;;
36423;SDS011;22458;45.328;9.514;2023-02-15T05:55:31;14.90;;;10.73;;
36423;SDS011;22458;45.328;9.514;2023-02-15T05:57:57;18.48;;;12.80;;
36423;SDS011;22458;45.328;9.514;2023-02-15T06:00:22;17.38;;;13.02;;
36423;SDS011;22458;45.328;9.514;2023-02-15T06:02:48;15.02;;;11.63;;
36423;SDS011;22458;45.328;9.514;2023-02-15T06:05:14;15.32;;;11.35;;
36423;SDS011;22458;45.328;9.514;2023-02-15T06:07:42;16.48;;;11.38;;
36423;SDS011;22458;45.328;9.514;2023-02-15T06:10:09;15.25;;;11.48;;
36423;SDS011;22458;45.328;9.514;2023-02-15T06:12:34;15.63;;;11.52;;
36423;SDS011;22458;45.328;9.514;2023-02-15T06:15:00;13.25;;;11.15;;
36423;SDS011;22458;45.328;9.514;2023-02-15T06:17:26;16.67;;;12.70;;
36423;SDS011;22458;45.328;9.514;2023-02-15T06:19:52;16.08;;;12.13;;
36423;SDS011;22458;45.328;9.514;2023-02-15T06:22:17;16.33;;;11.27;;
36423;SDS011;22458;45.328;9.514;2023-02-15T06:24:43;13.98;;;11.63;;
36423;SDS011;22458;45.328;9.514;2023-02-15T06:27:09;13.90;;;10.65;;
36423;SDS011;22458;45.328;9.514;2023-02-15T06:29:35;13.05;;;10.82;;
36423;SDS011;22458;45.328;9.514;2023-02-15T06:32:01;15.52;;;11.52;;
36423;SDS011;22458;45.328;9.514;2023-02-15T06:34:27;17.77;;;13.05;;
36423;SDS011;22458;45.328;9.514;2023-02-15T06:36:53;19.60;;;13.15;;
36423;SDS011;22458;45.328;9.514;2023-02-15T06:39:18;17.58;;;13.10;;
36423;SDS011;22458;45.328;9.514;2023-02-15T06:41:44;16.00;;;11.98;;
36423;SDS011;22458;45.328;9.514;2023-02-15T06:44:10;18.00;;;12.30;;
36423;SDS011;22458;45.328;9.514;2023-02-15T06:46:35;17.13;;;12.52;;
36423;SDS011;22458;45.328;9.514;2023-02-15T06:49:01;18.35;;;13.23;;
36423;SDS011;22458;45.328;9.514;2023-02-15T06:51:27;19.98;;;13.02;;
36423;SDS011;22458;45.328;9.514;2023-02-15T06:53:52;20.77;;;13.55;;
36423;SDS011;22458;45.328;9.514;2023-02-15T06:56:18;20.83;;;14.63;;
36423;SDS011;22458;45.328;9.514;2023-02-15T06:58:44;18.27;;;13.18;;
36423;SDS011;22458;45.328;9.514;2023-02-15T07:01:14;16.17;;;12.05;;
36423;SDS011;22458;45.328;9.514;2023-02-15T07:03:40;19.30;;;13.75;;
36423;SDS011;22458;45.328;9.514;2023-02-15T07:06:06;18.30;;;13.55;;
36423;SDS011;22458;45.328;9.514;2023-02-15T07:08:34;21.33;;;14.70;;
36423;SDS011;22458;45.328;9.514;2023-02-15T07:11:00;16.02;;;13.20;;
36423;SDS011;22458;45.328;9.514;2023-02-15T07:13:45;18.83;;;13.25;;
36423;SDS011;22458;45.328;9.514;2023-02-15T07:16:12;17.40;;;14.00;;
36423;SDS011;22458;45.328;9.514;2023-02-15T07:18:38;20.42;;;14.52;;
36423;SDS011;22458;45.328;9.514;2023-02-15T07:21:05;18.58;;;13.30;;
36423;SDS011;22458;45.328;9.514;2023-02-15T07:23:37;21.75;;;14.73;;
36423;SDS011;22458;45.328;9.514;2023-02-15T07:26:04;19.67;;;13.60;;
36423;SDS011;22458;45.328;9.514;2023-02-15T07:28:32;23.65;;;15.95;;
36423;SDS011;22458;45.328;9.514;2023-02-15T07:31:00;27.98;;;16.63;;
36423;SDS011;22458;45.328;9.514;2023-02-15T07:33:27;26.15;;;17.80;;
36423;SDS011;22458;45.328;9.514;2023-02-15T07:35:55;25.83;;;17.17;;
36423;SDS011;22458;45.328;9.514;2023-02-15T07:38:26;30.75;;;18.60;;
36423;SDS011;22458;45.328;9.514;2023-02-15T07:40:59;29.85;;;20.48;;
36423;SDS011;22458;45.328;9.514;2023-02-15T07:43:26;36.25;;;21.35;;
36423;SDS011;22458;45.328;9.514;2023-02-15T07:45:53;36.15;;;21.20;;
36423;SDS011;22458;45.328;9.514;2023-02-15T07:48:18;38.92;;;23.02;;
36423;SDS011;22458;45.328;9.514;2023-02-15T07:50:44;34.97;;;22.88;;
36423;SDS011;22458;45.328;9.514;2023-02-15T07:53:10;46.15;;;25.15;;
36423;SDS011;22458;45.328;9.514;2023-02-15T07:55:36;41.97;;;25.30;;
36423;SDS011;22458;45.328;9.514;2023-02-15T07:58:01;34.65;;;21.25;;
36423;SDS011;22458;45.328;9.514;2023-02-15T08:00:27;47.65;;;26.85;;
36423;SDS011;22458;45.328;9.514;2023-02-15T08:02:55;54.92;;;32.13;;
36423;SDS011;22458;45.328;9.514;2023-02-15T08:05:39;56.63;;;31.13;;
36423;SDS011;22458;45.328;9.514;2023-02-15T08:08:06;50.25;;;30.55;;
36423;SDS011;22458;45.328;9.514;2023-02-15T08:10:33;54.63;;;34.35;;
36423;SDS011;22458;45.328;9.514;2023-02-15T08:13:19;61.30;;;35.08;;
36423;SDS011;22458;45.328;9.514;2023-02-15T08:15:49;63.83;;;36.03;;
36423;SDS011;22458;45.328;9.514;2023-02-15T08:18:15;55.47;;;34.70;;
36423;SDS011;22458;45.328;9.514;2023-02-15T08:20:41;58.13;;;35.25;;
36423;SDS011;22458;45.328;9.514;2023-02-15T08:23:07;54.55;;;33.28;;
36423;SDS011;22458;45.328;9.514;2023-02-15T08:25:33;61.25;;;33.33;;
36423;SDS011;22458;45.328;9.514;2023-02-15T08:27:58;52.42;;;30.77;;
36423;SDS011;22458;45.328;9.514;2023-02-15T08:30:24;55.83;;;33.90;;
36423;SDS011;22458;45.328;9.514;2023-02-15T08:32:50;59.47;;;33.00;;
36423;SDS011;22458;45.328;9.514;2023-02-15T08:35:16;53.75;;;32.45;;
36423;SDS011;22458;45.328;9.514;2023-02-15T08:37:42;58.17;;;34.50;;
36423;SDS011;22458;45.328;9.514;2023-02-15T08:40:08;58.75;;;34.30;;
36423;SDS011;22458;45.328;9.514;2023-02-15T08:42:34;58.83;;;35.45;;
36423;SDS011;22458;45.328;9.514;2023-02-15T08:44:59;56.53;;;33.83;;
36423;SDS011;22458;45.328;9.514;2023-02-15T08:47:25;57.60;;;35.33;;
36423;SDS011;22458;45.328;9.514;2023-02-15T08:49:51;57.80;;;33.67;;
36423;SDS011;22458;45.328;9.514;2023-02-15T08:52:17;57.97;;;35.22;;
36423;SDS011;22458;45.328;9.514;2023-02-15T08:54:42;62.13;;;36.33;;
36423;SDS011;22458;45.328;9.514;2023-02-15T08:57:08;59.63;;;36.42;;
36423;SDS011;22458;45.328;9.514;2023-02-15T08:59:35;59.90;;;35.40;;
36423;SDS011;22458;45.328;9.514;2023-02-15T09:02:01;57.55;;;36.88;;
36423;SDS011;22458;45.328;9.514;2023-02-15T09:04:28;61.95;;;35.95;;
36423;SDS011;22458;45.328;9.514;2023-02-15T09:06:53;61.03;;;37.22;;
36423;SDS011;22458;45.328;9.514;2023-02-15T09:09:20;63.00;;;37.78;;
36423;SDS011;22458;45.328;9.514;2023-02-15T09:11:48;62.20;;;37.38;;
36423;SDS011;22458;45.328;9.514;2023-02-15T09:14:18;63.40;;;37.65;;
36423;SDS011;22458;45.328;9.514;2023-02-15T09:16:46;62.70;;;38.78;;
36423;SDS011;22458;45.328;9.514;2023-02-15T09:19:17;63.30;;;38.80;;
36423;SDS011;22458;45.328;9.514;2023-02-15T09:21:44;61.45;;;38.30;;
36423;SDS011;22458;45.328;9.514;2023-02-15T09:24:11;60.88;;;38.15;;
36423;SDS011;22458;45.328;9.514;2023-02-15T09:26:39;66.32;;;39.53;;
36423;SDS011;22458;45.328;9.514;2023-02-15T09:29:07;63.50;;;37.85;;
36423;SDS011;22458;45.328;9.514;2023-02-15T09:31:37;60.55;;;37.45;;
36423;SDS011;22458;45.328;9.514;2023-02-15T09:34:06;74.05;;;39.30;;
36423;SDS011;22458;45.328;9.514;2023-02-15T09:36:33;63.03;;;36.92;;
36423;SDS011;22458;45.328;9.514;2023-02-15T09:39:03;62.78;;;38.25;;
36423;SDS011;22458;45.328;9.514;2023-02-15T09:41:36;61.13;;;35.83;;
36423;SDS011;22458;45.328;9.514;2023-02-15T09:57:51;58.72;;;36.50;;
36423;SDS011;22458;45.328;9.514;2023-02-15T10:10:59;51.45;;;33.03;;
36423;SDS011;22458;45.328;9.514;2023-02-15T10:14:01;55.20;;;32.15;;
36423;SDS011;22458;45.328;9.514;2023-02-15T10:16:33;46.45;;;30.35;;
36423;SDS011;22458;45.328;9.514;2023-02-15T10:19:17;49.92;;;31.25;;
36423;SDS011;22458;45.328;9.514;2023-02-15T10:27:22;46.05;;;29.35;;
36423;SDS011;22458;45.328;9.514;2023-02-15T10:32:34;43.70;;;27.98;;
36423;SDS011;22458;45.328;9.514;2023-02-15T10:35:26;40.92;;;27.77;;
36423;SDS011;22458;45.328;9.514;2023-02-15T10:51:08;38.72;;;26.20;;
36423;SDS011;22458;45.328;9.514;2023-02-15T11:02:20;38.45;;;25.88;;
36423;SDS011;22458;45.328;9.514;2023-02-15T11:08:03;41.78;;;24.75;;
36423;SDS011;22458;45.328;9.514;2023-02-15T11:13:36;38.35;;;23.40;;
36423;SDS011;22458;45.328;9.514;2023-02-15T11:16:07;36.95;;;23.67;;
36423;SDS011;22458;45.328;9.514;2023-02-15T11:19:13;41.55;;;24.63;;
36423;SDS011;22458;45.328;9.514;2023-02-15T11:21:32;34.60;;;23.00;;
36423;SDS011;22458;45.328;9.514;2023-02-15T11:26:39;33.33;;;21.30;;
36423;SDS011;22458;45.328;9.514;2023-02-15T11:32:01;35.28;;;21.45;;
36423;SDS011;22458;45.328;9.514;2023-02-15T11:40:35;34.65;;;20.90;;
36423;SDS011;22458;45.328;9.514;2023-02-15T11:43:29;31.67;;;21.83;;
36423;SDS011;22458;45.328;9.514;2023-02-15T11:46:18;40.70;;;23.00;;
36423;SDS011;22458;45.328;9.514;2023-02-15T11:48:45;37.85;;;23.38;;
36423;SDS011;22458;45.328;9.514;2023-02-15T11:51:12;34.10;;;22.38;;
36423;SDS011;22458;45.328;9.514;2023-02-15T11:53:41;39.30;;;22.48;;
36423;SDS011;22458;45.328;9.514;2023-02-15T11:58:53;41.47;;;23.63;;
36423;SDS011;22458;45.328;9.514;2023-02-15T12:01:36;43.70;;;24.00;;
36423;SDS011;22458;45.328;9.514;2023-02-15T12:05:06;39.03;;;23.40;;
36423;SDS011;22458;45.328;9.514;2023-02-15T12:09:48;38.75;;;23.02;;
36423;SDS011;22458;45.328;9.514;2023-02-15T12:12:27;35.33;;;20.27;;
36423;SDS011;22458;45.328;9.514;2023-02-15T12:14:56;39.13;;;23.85;;
36423;SDS011;22458;45.328;9.514;2023-02-15T12:17:24;41.75;;;23.85;;
36423;SDS011;22458;45.328;9.514;2023-02-15T12:19:55;40.22;;;24.73;;
36423;SDS011;22458;45.328;9.514;2023-02-15T12:24:50;36.72;;;21.17;;
36423;SDS011;22458;45.328;9.514;2023-02-15T12:29:59;37.42;;;22.02;;
36423;SDS011;22458;45.328;9.514;2023-02-15T12:32:34;34.55;;;21.20;;
36423;SDS011;22458;45.328;9.514;2023-02-15T12:35:08;37.20;;;20.90;;
36423;SDS011;22458;45.328;9.514;2023-02-15T12:37:40;37.55;;;21.48;;
36423;SDS011;22458;45.328;9.514;2023-02-15T12:40:21;34.28;;;20.02;;
36423;SDS011;22458;45.328;9.514;2023-02-15T12:42:51;40.75;;;23.27;;
36423;SDS011;22458;45.328;9.514;2023-02-15T12:45:30;40.70;;;24.95;;
36423;SDS011;22458;45.328;9.514;2023-02-15T12:50:39;35.05;;;20.60;;
36423;SDS011;22458;45.328;9.514;2023-02-15T12:55:37;42.40;;;22.83;;
36423;SDS011;22458;45.328;9.514;2023-02-15T12:58:19;37.85;;;21.98;;
36423;SDS011;22458;45.328;9.514;2023-02-15T13:01:02;38.75;;;21.00;;
36423;SDS011;22458;45.328;9.514;2023-02-15T13:03:27;38.55;;;22.85;;
36423;SDS011;22458;45.328;9.514;2023-02-15T13:05:54;37.72;;;21.33;;
36423;SDS011;22458;45.328;9.514;2023-02-15T13:10:59;45.03;;;23.17;;
36423;SDS011;22458;45.328;9.514;2023-02-15T13:13:32;39.67;;;22.65;;
36423;SDS011;22458;45.328;9.514;2023-02-15T13:16:04;37.78;;;21.83;;
36423;SDS011;22458;45.328;9.514;2023-02-15T13:18:36;39.80;;;22.67;;
36423;SDS011;22458;45.328;9.514;2023-02-15T13:21:12;35.42;;;21.40;;
36423;SDS011;22458;45.328;9.514;2023-02-15T13:24:00;39.85;;;22.02;;
36423;SDS011;22458;45.328;9.514;2023-02-15T13:28:58;38.85;;;20.60;;
36423;SDS011;22458;45.328;9.514;2023-02-15T13:31:31;37.60;;;21.88;;
36423;SDS011;22458;45.328;9.514;2023-02-15T13:39:25;39.40;;;20.27;;
36423;SDS011;22458;45.328;9.514;2023-02-15T13:47:13;35.92;;;20.67;;
36423;SDS011;22458;45.328;9.514;2023-02-15T13:50:08;38.67;;;21.67;;
36423;SDS011;22458;45.328;9.514;2023-02-15T13:52:47;36.40;;;20.13;;
36423;SDS011;22458;45.328;9.514;2023-02-15T13:56:05;39.72;;;20.40;;
36423;SDS011;22458;45.328;9.514;2023-02-15T14:01:09;37.22;;;20.50;;
36423;SDS011;22458;45.328;9.514;2023-02-15T14:14:31;37.75;;;21.25;;
36423;SDS011;22458;45.328;9.514;2023-02-15T14:19:59;36.97;;;21.05;;
36423;SDS011;22458;45.328;9.514;2023-02-15T14:22:49;38.58;;;20.90;;
36423;SDS011;22458;45.328;9.514;2023-02-15T14:31:09;34.70;;;20.23;;
36423;SDS011;22458;45.328;9.514;2023-02-15T14:33:43;34.95;;;20.27;;
36423;SDS011;22458;45.328;9.514;2023-02-15T14:36:19;38.13;;;20.58;;
36423;SDS011;22458;45.328;9.514;2023-02-15T14:42:15;30.25;;;18.65;;
36423;SDS011;22458;45.328;9.514;2023-02-15T14:45:04;34.17;;;18.33;;
36423;SDS011;22458;45.328;9.514;2023-02-15T14:48:38;31.83;;;18.88;;
36423;SDS011;22458;45.328;9.514;2023-02-15T14:50:45;31.98;;;17.80;;
36423;SDS011;22458;45.328;9.514;2023-02-15T14:53:16;35.15;;;18.98;;
36423;SDS011;22458;45.328;9.514;2023-02-15T14:58:56;33.33;;;17.77;;
36423;SDS011;22458;45.328;9.514;2023-02-15T15:01:30;34.35;;;18.42;;
36423;SDS011;22458;45.328;9.514;2023-02-15T15:04:00;34.45;;;18.75;;
36423;SDS011;22458;45.328;9.514;2023-02-15T15:06:30;33.20;;;18.10;;
36423;SDS011;22458;45.328;9.514;2023-02-15T15:11:51;33.13;;;18.63;;
36423;SDS011;22458;45.328;9.514;2023-02-15T15:14:39;37.50;;;18.38;;
36423;SDS011;22458;45.328;9.514;2023-02-15T15:17:06;30.95;;;18.63;;
36423;SDS011;22458;45.328;9.514;2023-02-15T15:22:17;34.67;;;19.08;;
36423;SDS011;22458;45.328;9.514;2023-02-15T15:30:48;31.50;;;16.98;;
36423;SDS011;22458;45.328;9.514;2023-02-15T15:35:34;29.92;;;18.00;;
36423;SDS011;22458;45.328;9.514;2023-02-15T15:46:41;36.33;;;18.45;;
36423;SDS011;22458;45.328;9.514;2023-02-15T15:49:34;33.22;;;18.52;;
36423;SDS011;22458;45.328;9.514;2023-02-15T15:52:03;34.17;;;19.00;;
36423;SDS011;22458;45.328;9.514;2023-02-15T15:54:38;35.05;;;18.65;;
36423;SDS011;22458;45.328;9.514;2023-02-15T15:57:11;31.65;;;16.85;;
36423;SDS011;22458;45.328;9.514;2023-02-15T15:59:50;33.80;;;18.42;;
36423;SDS011;22458;45.328;9.514;2023-02-15T16:02:17;35.85;;;19.40;;
36423;SDS011;22458;45.328;9.514;2023-02-15T16:04:43;35.33;;;19.15;;
36423;SDS011;22458;45.328;9.514;2023-02-15T16:12:45;34.42;;;18.67;;
36423;SDS011;22458;45.328;9.514;2023-02-15T16:15:15;38.40;;;18.13;;
36423;SDS011;22458;45.328;9.514;2023-02-15T16:17:44;30.48;;;18.17;;
36423;SDS011;22458;45.328;9.514;2023-02-15T16:22:44;38.95;;;18.92;;
36423;SDS011;22458;45.328;9.514;2023-02-15T16:25:21;37.05;;;19.35;;
36423;SDS011;22458;45.328;9.514;2023-02-15T16:27:53;33.58;;;18.10;;
36423;SDS011;22458;45.328;9.514;2023-02-15T16:33:02;33.38;;;18.27;;
36423;SDS011;22458;45.328;9.514;2023-02-15T16:35:29;34.25;;;16.90;;
36423;SDS011;22458;45.328;9.514;2023-02-15T16:37:55;32.05;;;18.42;;
36423;SDS011;22458;45.328;9.514;2023-02-15T16:42:59;35.47;;;18.42;;
36423;SDS011;22458;45.328;9.514;2023-02-15T16:45:27;34.67;;;17.23;;
36423;SDS011;22458;45.328;9.514;2023-02-15T16:47:56;32.97;;;19.23;;
36423;SDS011;22458;45.328;9.514;2023-02-15T16:50:34;34.13;;;18.23;;
36423;SDS011;22458;45.328;9.514;2023-02-15T16:53:02;34.88;;;19.08;;
36423;SDS011;22458;45.328;9.514;2023-02-15T16:55:40;31.17;;;18.30;;
36423;SDS011;22458;45.328;9.514;2023-02-15T16:58:11;35.65;;;18.30;;
36423;SDS011;22458;45.328;9.514;2023-02-15T17:00:40;37.00;;;17.50;;
36423;SDS011;22458;45.328;9.514;2023-02-15T17:03:19;39.47;;;19.35;;
36423;SDS011;22458;45.328;9.514;2023-02-15T17:05:49;34.58;;;18.70;;
36423;SDS011;22458;45.328;9.514;2023-02-15T17:11:43;31.25;;;17.50;;
36423;SDS011;22458;45.328;9.514;2023-02-15T17:16:49;42.38;;;19.52;;
36423;SDS011;22458;45.328;9.514;2023-02-15T17:19:23;44.92;;;18.45;;
36423;SDS011;22458;45.328;9.514;2023-02-15T17:21:53;36.28;;;20.10;;
36423;SDS011;22458;45.328;9.514;2023-02-15T17:27:10;34.90;;;19.30;;
36423;SDS011;22458;45.328;9.514;2023-02-15T17:29:43;38.10;;;18.80;;
36423;SDS011;22458;45.328;9.514;2023-02-15T17:32:13;34.30;;;19.70;;
36423;SDS011;22458;45.328;9.514;2023-02-15T17:39:57;41.33;;;18.50;;
36423;SDS011;22458;45.328;9.514;2023-02-15T17:42:24;36.55;;;19.77;;
36423;SDS011;22458;45.328;9.514;2023-02-15T17:44:50;39.45;;;19.42;;
36423;SDS011;22458;45.328;9.514;2023-02-15T17:47:17;40.08;;;19.25;;
36423;SDS011;22458;45.328;9.514;2023-02-15T17:49:46;38.35;;;19.85;;
36423;SDS011;22458;45.328;9.514;2023-02-15T17:52:14;37.80;;;19.75;;
36423;SDS011;22458;45.328;9.514;2023-02-15T17:54:42;37.45;;;19.73;;
36423;SDS011;22458;45.328;9.514;2023-02-15T17:57:27;37.22;;;20.27;;
36423;SDS011;22458;45.328;9.514;2023-02-15T17:59:53;39.85;;;19.38;;
36423;SDS011;22458;45.328;9.514;2023-02-15T18:02:38;38.50;;;20.23;;